sensor_id;sensor_type;location;lat;lon;timestamp;P1;durP1;ratioP1;P2;durP2;ratioP2
7531;SDS011;3807;49.030;8.714;2022-12-17T00:00:18;25.87;;;13.33;;
7531;SDS011;3807;49.030;8.714;2022-12-17T00:03:02;24.20;;;12.77;;
7531;SDS011;3807;49.030;8.714;2022-12-17T00:05:46;24.23;;;13.30;;
7531;SDS011;3807;49.030;8.714;2022-12-17T00:08:30;21.43;;;12.37;;
7531;SDS011;3807;49.030;8.714;2022-12-17T00:11:14;27.07;;;14.23;;
7531;SDS011;3807;49.030;8.714;2022-12-17T00:13:58;27.03;;;13.17;;
7531;SDS011;3807;49.030;8.714;2022-12-17T00:16:42;26.93;;;13.60;;
7531;SDS011;3807;49.030;8.714;2022-12-17T00:19:26;27.60;;;15.33;;
7531;SDS011;3807;49.030;8.714;2022-12-17T00:22:10;29.80;;;14.23;;
7531;SDS011;3807;49.030;8.714;2022-12-17T00:24:54;28.53;;;12.70;;
7531;SDS011;3807;49.030;8.714;2022-12-17T00:27:38;21.67;;;11.70;;
7531;SDS011;3807;49.030;8.714;2022-12-17T00:30:22;23.40;;;12.57;;
7531;SDS011;3807;49.030;8.714;2022-12-17T00:33:06;19.73;;;10.43;;
7531;SDS011;3807;49.030;8.714;2022-12-17T00:35:51;22.50;;;11.43;;
7531;SDS011;3807;49.030;8.714;2022-12-17T00:38:36;22.50;;;12.23;;
7531;SDS011;3807;49.030;8.714;2022-12-17T00:41:20;21.97;;;11.53;;
7531;SDS011;3807;49.030;8.714;2022-12-17T00:44:04;22.50;;;11.53;;
7531;SDS011;3807;49.030;8.714;2022-12-17T00:46:48;23.47;;;11.63;;
7531;SDS011;3807;49.030;8.714;2022-12-17T00:49:32;19.00;;;10.57;;
7531;SDS011;3807;49.030;8.714;2022-12-17T00:52:16;22.50;;;11.77;;
7531;SDS011;3807;49.030;8.714;2022-12-17T00:55:00;23.13;;;11.83;;
7531;SDS011;3807;49.030;8.714;2022-12-17T00:57:44;23.27;;;12.17;;
7531;SDS011;3807;49.030;8.714;2022-12-17T01:00:28;21.50;;;12.00;;
7531;SDS011;3807;49.030;8.714;2022-12-17T01:03:12;24.37;;;12.43;;
7531;SDS011;3807;49.030;8.714;2022-12-17T01:05:59;22.83;;;11.07;;
7531;SDS011;3807;49.030;8.714;2022-12-17T01:08:45;21.03;;;10.83;;
7531;SDS011;3807;49.030;8.714;2022-12-17T01:11:29;21.30;;;11.07;;
7531;SDS011;3807;49.030;8.714;2022-12-17T01:14:13;19.03;;;10.53;;
7531;SDS011;3807;49.030;8.714;2022-12-17T01:17:01;21.07;;;10.90;;
7531;SDS011;3807;49.030;8.714;2022-12-17T01:19:45;18.60;;;10.67;;
7531;SDS011;3807;49.030;8.714;2022-12-17T01:22:29;20.80;;;11.13;;
7531;SDS011;3807;49.030;8.714;2022-12-17T01:25:13;20.60;;;10.43;;
7531;SDS011;3807;49.030;8.714;2022-12-17T01:27:57;19.93;;;9.60;;
7531;SDS011;3807;49.030;8.714;2022-12-17T01:30:41;17.30;;;9.87;;
7531;SDS011;3807;49.030;8.714;2022-12-17T01:33:25;19.67;;;10.47;;
7531;SDS011;3807;49.030;8.714;2022-12-17T01:36:09;18.03;;;10.37;;
7531;SDS011;3807;49.030;8.714;2022-12-17T01:38:53;24.73;;;11.23;;
7531;SDS011;3807;49.030;8.714;2022-12-17T01:41:37;22.70;;;9.90;;
7531;SDS011;3807;49.030;8.714;2022-12-17T01:47:38;18.67;;;10.30;;
7531;SDS011;3807;49.030;8.714;2022-12-17T01:50:25;18.07;;;9.90;;
7531;SDS011;3807;49.030;8.714;2022-12-17T01:53:13;18.87;;;10.30;;
7531;SDS011;3807;49.030;8.714;2022-12-17T01:55:58;21.07;;;10.60;;
7531;SDS011;3807;49.030;8.714;2022-12-17T01:58:42;21.20;;;10.83;;
7531;SDS011;3807;49.030;8.714;2022-12-17T02:01:27;18.90;;;10.17;;
7531;SDS011;3807;49.030;8.714;2022-12-17T02:04:11;16.80;;;9.40;;
7531;SDS011;3807;49.030;8.714;2022-12-17T02:12:51;18.13;;;9.70;;
7531;SDS011;3807;49.030;8.714;2022-12-17T02:15:41;15.73;;;8.50;;
7531;SDS011;3807;49.030;8.714;2022-12-17T02:18:35;15.57;;;9.40;;
7531;SDS011;3807;49.030;8.714;2022-12-17T02:21:23;17.40;;;10.10;;
7531;SDS011;3807;49.030;8.714;2022-12-17T02:24:24;16.90;;;9.77;;
7531;SDS011;3807;49.030;8.714;2022-12-17T02:27:17;19.50;;;10.73;;
7531;SDS011;3807;49.030;8.714;2022-12-17T02:30:03;16.77;;;9.40;;
7531;SDS011;3807;49.030;8.714;2022-12-17T02:32:49;17.67;;;9.37;;
7531;SDS011;3807;49.030;8.714;2022-12-17T02:35:52;18.20;;;10.30;;
7531;SDS011;3807;49.030;8.714;2022-12-17T02:38:40;19.43;;;9.40;;
7531;SDS011;3807;49.030;8.714;2022-12-17T02:44:27;18.53;;;9.83;;
7531;SDS011;3807;49.030;8.714;2022-12-17T02:47:12;19.27;;;9.10;;
7531;SDS011;3807;49.030;8.714;2022-12-17T02:49:57;18.13;;;8.90;;
7531;SDS011;3807;49.030;8.714;2022-12-17T02:52:43;19.73;;;9.30;;
7531;SDS011;3807;49.030;8.714;2022-12-17T02:55:30;15.97;;;8.03;;
7531;SDS011;3807;49.030;8.714;2022-12-17T02:58:16;17.33;;;8.37;;
7531;SDS011;3807;49.030;8.714;2022-12-17T03:01:00;21.73;;;10.23;;
7531;SDS011;3807;49.030;8.714;2022-12-17T03:03:44;15.00;;;8.27;;
7531;SDS011;3807;49.030;8.714;2022-12-17T03:06:28;16.90;;;10.20;;
7531;SDS011;3807;49.030;8.714;2022-12-17T03:09:12;16.30;;;9.17;;
7531;SDS011;3807;49.030;8.714;2022-12-17T03:11:56;14.60;;;9.23;;
7531;SDS011;3807;49.030;8.714;2022-12-17T03:14:40;19.23;;;10.80;;
7531;SDS011;3807;49.030;8.714;2022-12-17T03:17:24;16.67;;;9.67;;
7531;SDS011;3807;49.030;8.714;2022-12-17T03:20:08;16.57;;;8.77;;
7531;SDS011;3807;49.030;8.714;2022-12-17T03:22:59;18.07;;;10.10;;
7531;SDS011;3807;49.030;8.714;2022-12-17T03:25:44;20.83;;;11.03;;
7531;SDS011;3807;49.030;8.714;2022-12-17T03:28:28;18.23;;;9.73;;
7531;SDS011;3807;49.030;8.714;2022-12-17T03:31:12;18.17;;;9.90;;
7531;SDS011;3807;49.030;8.714;2022-12-17T03:33:56;17.57;;;9.77;;
7531;SDS011;3807;49.030;8.714;2022-12-17T03:36:40;20.23;;;9.47;;
7531;SDS011;3807;49.030;8.714;2022-12-17T03:39:24;20.03;;;8.90;;
7531;SDS011;3807;49.030;8.714;2022-12-17T03:42:08;17.90;;;9.73;;
7531;SDS011;3807;49.030;8.714;2022-12-17T03:44:53;17.33;;;9.43;;
7531;SDS011;3807;49.030;8.714;2022-12-17T03:47:37;18.27;;;9.37;;
7531;SDS011;3807;49.030;8.714;2022-12-17T03:50:34;21.23;;;9.67;;
7531;SDS011;3807;49.030;8.714;2022-12-17T03:53:18;17.17;;;9.10;;
7531;SDS011;3807;49.030;8.714;2022-12-17T03:56:02;17.30;;;10.70;;
7531;SDS011;3807;49.030;8.714;2022-12-17T03:58:46;22.07;;;10.13;;
7531;SDS011;3807;49.030;8.714;2022-12-17T04:01:30;35.07;;;14.87;;
7531;SDS011;3807;49.030;8.714;2022-12-17T04:04:14;15.67;;;7.87;;
7531;SDS011;3807;49.030;8.714;2022-12-17T04:06:58;21.27;;;10.33;;
7531;SDS011;3807;49.030;8.714;2022-12-17T04:09:42;25.00;;;13.40;;
7531;SDS011;3807;49.030;8.714;2022-12-17T04:12:26;18.13;;;10.37;;
7531;SDS011;3807;49.030;8.714;2022-12-17T04:15:10;19.87;;;10.57;;
7531;SDS011;3807;49.030;8.714;2022-12-17T04:17:54;21.73;;;11.77;;
7531;SDS011;3807;49.030;8.714;2022-12-17T04:20:49;37.57;;;12.73;;
7531;SDS011;3807;49.030;8.714;2022-12-17T04:23:33;19.63;;;10.70;;
7531;SDS011;3807;49.030;8.714;2022-12-17T04:26:17;19.67;;;11.50;;
7531;SDS011;3807;49.030;8.714;2022-12-17T04:29:01;15.97;;;7.20;;
7531;SDS011;3807;49.030;8.714;2022-12-17T04:31:45;28.73;;;12.90;;
7531;SDS011;3807;49.030;8.714;2022-12-17T04:34:29;23.03;;;12.00;;
7531;SDS011;3807;49.030;8.714;2022-12-17T04:37:13;36.87;;;12.33;;
7531;SDS011;3807;49.030;8.714;2022-12-17T04:39:57;28.80;;;12.00;;
7531;SDS011;3807;49.030;8.714;2022-12-17T04:42:41;23.97;;;10.70;;
7531;SDS011;3807;49.030;8.714;2022-12-17T04:45:25;24.03;;;10.87;;
7531;SDS011;3807;49.030;8.714;2022-12-17T04:48:09;25.97;;;12.13;;
7531;SDS011;3807;49.030;8.714;2022-12-17T04:50:53;22.03;;;11.23;;
7531;SDS011;3807;49.030;8.714;2022-12-17T04:53:37;30.23;;;15.83;;
7531;SDS011;3807;49.030;8.714;2022-12-17T04:56:21;31.67;;;13.97;;
7531;SDS011;3807;49.030;8.714;2022-12-17T04:59:05;23.73;;;11.67;;
7531;SDS011;3807;49.030;8.714;2022-12-17T05:01:49;23.17;;;11.47;;
7531;SDS011;3807;49.030;8.714;2022-12-17T05:04:33;22.97;;;10.37;;
7531;SDS011;3807;49.030;8.714;2022-12-17T05:07:17;26.87;;;10.90;;
7531;SDS011;3807;49.030;8.714;2022-12-17T05:10:01;21.63;;;11.03;;
7531;SDS011;3807;49.030;8.714;2022-12-17T05:12:46;25.10;;;12.50;;
7531;SDS011;3807;49.030;8.714;2022-12-17T05:15:30;24.97;;;13.00;;
7531;SDS011;3807;49.030;8.714;2022-12-17T05:18:14;27.60;;;12.87;;
7531;SDS011;3807;49.030;8.714;2022-12-17T05:20:58;57.00;;;18.53;;
7531;SDS011;3807;49.030;8.714;2022-12-17T05:23:42;33.97;;;14.87;;
7531;SDS011;3807;49.030;8.714;2022-12-17T05:26:26;41.60;;;15.93;;
7531;SDS011;3807;49.030;8.714;2022-12-17T05:29:11;33.77;;;16.20;;
7531;SDS011;3807;49.030;8.714;2022-12-17T05:31:56;10.67;;;7.20;;
7531;SDS011;3807;49.030;8.714;2022-12-17T05:34:40;27.97;;;12.40;;
7531;SDS011;3807;49.030;8.714;2022-12-17T05:37:24;29.00;;;12.23;;
7531;SDS011;3807;49.030;8.714;2022-12-17T05:40:08;32.40;;;14.17;;
7531;SDS011;3807;49.030;8.714;2022-12-17T05:42:53;26.50;;;10.70;;
7531;SDS011;3807;49.030;8.714;2022-12-17T05:45:42;30.73;;;15.07;;
7531;SDS011;3807;49.030;8.714;2022-12-17T05:48:27;35.33;;;15.30;;
7531;SDS011;3807;49.030;8.714;2022-12-17T05:51:11;28.90;;;12.87;;
7531;SDS011;3807;49.030;8.714;2022-12-17T05:53:54;30.27;;;14.20;;
7531;SDS011;3807;49.030;8.714;2022-12-17T05:56:38;26.07;;;13.57;;
7531;SDS011;3807;49.030;8.714;2022-12-17T05:59:22;31.60;;;14.80;;
7531;SDS011;3807;49.030;8.714;2022-12-17T06:02:06;27.20;;;14.07;;
7531;SDS011;3807;49.030;8.714;2022-12-17T06:04:50;24.33;;;12.57;;
7531;SDS011;3807;49.030;8.714;2022-12-17T06:07:34;17.27;;;10.27;;
7531;SDS011;3807;49.030;8.714;2022-12-17T06:10:19;27.47;;;11.93;;
7531;SDS011;3807;49.030;8.714;2022-12-17T06:13:03;28.57;;;12.00;;
7531;SDS011;3807;49.030;8.714;2022-12-17T06:15:47;26.63;;;12.47;;
7531;SDS011;3807;49.030;8.714;2022-12-17T06:18:32;21.87;;;11.40;;
7531;SDS011;3807;49.030;8.714;2022-12-17T06:21:17;29.30;;;12.80;;
7531;SDS011;3807;49.030;8.714;2022-12-17T06:24:01;33.87;;;14.57;;
7531;SDS011;3807;49.030;8.714;2022-12-17T06:26:45;30.73;;;13.77;;
7531;SDS011;3807;49.030;8.714;2022-12-17T06:29:29;31.43;;;12.63;;
7531;SDS011;3807;49.030;8.714;2022-12-17T06:32:13;25.93;;;13.63;;
7531;SDS011;3807;49.030;8.714;2022-12-17T06:34:57;16.93;;;7.20;;
7531;SDS011;3807;49.030;8.714;2022-12-17T06:37:41;21.63;;;10.20;;
7531;SDS011;3807;49.030;8.714;2022-12-17T06:40:25;20.10;;;10.23;;
7531;SDS011;3807;49.030;8.714;2022-12-17T06:43:09;21.70;;;10.33;;
7531;SDS011;3807;49.030;8.714;2022-12-17T06:45:53;25.47;;;11.60;;
7531;SDS011;3807;49.030;8.714;2022-12-17T06:48:37;25.37;;;11.57;;
7531;SDS011;3807;49.030;8.714;2022-12-17T06:51:21;22.33;;;12.17;;
7531;SDS011;3807;49.030;8.714;2022-12-17T06:54:05;24.30;;;10.53;;
7531;SDS011;3807;49.030;8.714;2022-12-17T06:56:49;24.10;;;11.13;;
7531;SDS011;3807;49.030;8.714;2022-12-17T06:59:33;19.23;;;9.90;;
7531;SDS011;3807;49.030;8.714;2022-12-17T07:02:17;26.63;;;11.73;;
7531;SDS011;3807;49.030;8.714;2022-12-17T07:05:01;20.13;;;11.63;;
7531;SDS011;3807;49.030;8.714;2022-12-17T07:07:46;24.70;;;11.83;;
7531;SDS011;3807;49.030;8.714;2022-12-17T07:10:30;21.20;;;8.33;;
7531;SDS011;3807;49.030;8.714;2022-12-17T07:13:14;24.00;;;11.70;;
7531;SDS011;3807;49.030;8.714;2022-12-17T07:15:58;25.73;;;11.33;;
7531;SDS011;3807;49.030;8.714;2022-12-17T07:18:43;23.50;;;11.37;;
7531;SDS011;3807;49.030;8.714;2022-12-17T07:21:27;25.70;;;12.30;;
7531;SDS011;3807;49.030;8.714;2022-12-17T07:24:11;27.93;;;13.13;;
7531;SDS011;3807;49.030;8.714;2022-12-17T07:26:55;13.23;;;8.37;;
7531;SDS011;3807;49.030;8.714;2022-12-17T07:29:39;15.60;;;8.67;;
7531;SDS011;3807;49.030;8.714;2022-12-17T07:32:23;27.10;;;13.63;;
7531;SDS011;3807;49.030;8.714;2022-12-17T07:35:07;20.83;;;11.07;;
7531;SDS011;3807;49.030;8.714;2022-12-17T07:37:58;27.27;;;13.03;;
7531;SDS011;3807;49.030;8.714;2022-12-17T07:40:43;26.20;;;11.73;;
7531;SDS011;3807;49.030;8.714;2022-12-17T07:43:27;20.30;;;7.93;;
7531;SDS011;3807;49.030;8.714;2022-12-17T07:46:11;23.47;;;12.17;;
7531;SDS011;3807;49.030;8.714;2022-12-17T07:48:55;27.03;;;13.60;;
7531;SDS011;3807;49.030;8.714;2022-12-17T07:51:39;24.73;;;12.13;;
7531;SDS011;3807;49.030;8.714;2022-12-17T07:54:23;20.87;;;9.73;;
7531;SDS011;3807;49.030;8.714;2022-12-17T07:57:07;27.30;;;13.27;;
7531;SDS011;3807;49.030;8.714;2022-12-17T07:59:51;24.23;;;12.07;;
7531;SDS011;3807;49.030;8.714;2022-12-17T08:02:35;26.17;;;12.30;;
7531;SDS011;3807;49.030;8.714;2022-12-17T08:05:19;24.23;;;12.03;;
7531;SDS011;3807;49.030;8.714;2022-12-17T08:08:07;22.20;;;11.43;;
7531;SDS011;3807;49.030;8.714;2022-12-17T08:10:51;21.27;;;8.13;;
7531;SDS011;3807;49.030;8.714;2022-12-17T08:13:36;26.93;;;11.93;;
7531;SDS011;3807;49.030;8.714;2022-12-17T08:16:20;23.53;;;11.40;;
7531;SDS011;3807;49.030;8.714;2022-12-17T08:19:04;22.23;;;10.97;;
7531;SDS011;3807;49.030;8.714;2022-12-17T08:21:48;24.60;;;13.57;;
7531;SDS011;3807;49.030;8.714;2022-12-17T08:24:32;26.13;;;11.40;;
7531;SDS011;3807;49.030;8.714;2022-12-17T08:27:16;24.80;;;11.57;;
7531;SDS011;3807;49.030;8.714;2022-12-17T08:30:00;25.43;;;12.23;;
7531;SDS011;3807;49.030;8.714;2022-12-17T08:32:44;24.23;;;12.07;;
7531;SDS011;3807;49.030;8.714;2022-12-17T08:35:28;22.03;;;10.07;;
7531;SDS011;3807;49.030;8.714;2022-12-17T08:38:12;12.17;;;6.30;;
7531;SDS011;3807;49.030;8.714;2022-12-17T08:40:58;22.73;;;12.20;;
7531;SDS011;3807;49.030;8.714;2022-12-17T08:43:43;21.83;;;11.50;;
7531;SDS011;3807;49.030;8.714;2022-12-17T08:46:27;23.33;;;11.87;;
7531;SDS011;3807;49.030;8.714;2022-12-17T08:49:11;20.40;;;11.00;;
7531;SDS011;3807;49.030;8.714;2022-12-17T08:51:55;33.50;;;14.50;;
7531;SDS011;3807;49.030;8.714;2022-12-17T08:54:39;25.23;;;12.27;;
7531;SDS011;3807;49.030;8.714;2022-12-17T08:57:23;17.83;;;8.63;;
7531;SDS011;3807;49.030;8.714;2022-12-17T09:00:07;17.67;;;9.07;;
7531;SDS011;3807;49.030;8.714;2022-12-17T09:02:58;31.83;;;13.37;;
7531;SDS011;3807;49.030;8.714;2022-12-17T09:05:45;27.13;;;11.13;;
7531;SDS011;3807;49.030;8.714;2022-12-17T09:08:29;30.50;;;13.50;;
7531;SDS011;3807;49.030;8.714;2022-12-17T09:11:13;26.57;;;13.87;;
7531;SDS011;3807;49.030;8.714;2022-12-17T09:13:58;22.33;;;10.93;;
7531;SDS011;3807;49.030;8.714;2022-12-17T09:16:42;13.30;;;7.97;;
7531;SDS011;3807;49.030;8.714;2022-12-17T09:19:26;26.13;;;11.20;;
7531;SDS011;3807;49.030;8.714;2022-12-17T09:22:10;29.57;;;14.10;;
7531;SDS011;3807;49.030;8.714;2022-12-17T09:24:54;19.93;;;10.07;;
7531;SDS011;3807;49.030;8.714;2022-12-17T09:27:38;25.73;;;10.73;;
7531;SDS011;3807;49.030;8.714;2022-12-17T09:30:22;33.00;;;14.43;;
7531;SDS011;3807;49.030;8.714;2022-12-17T09:33:06;27.13;;;13.73;;
7531;SDS011;3807;49.030;8.714;2022-12-17T09:35:50;27.20;;;13.67;;
7531;SDS011;3807;49.030;8.714;2022-12-17T09:38:34;28.47;;;13.93;;
7531;SDS011;3807;49.030;8.714;2022-12-17T09:41:25;30.07;;;13.97;;
7531;SDS011;3807;49.030;8.714;2022-12-17T09:50:26;24.60;;;12.73;;
7531;SDS011;3807;49.030;8.714;2022-12-17T09:53:19;20.73;;;10.07;;
7531;SDS011;3807;49.030;8.714;2022-12-17T09:56:27;21.17;;;11.73;;
7531;SDS011;3807;49.030;8.714;2022-12-17T09:59:20;29.60;;;13.83;;
7531;SDS011;3807;49.030;8.714;2022-12-17T10:02:11;18.87;;;10.30;;
7531;SDS011;3807;49.030;8.714;2022-12-17T10:04:57;28.37;;;13.93;;
7531;SDS011;3807;49.030;8.714;2022-12-17T10:07:43;27.50;;;13.50;;
7531;SDS011;3807;49.030;8.714;2022-12-17T10:10:29;34.33;;;15.40;;
7531;SDS011;3807;49.030;8.714;2022-12-17T10:13:22;26.33;;;15.30;;
7531;SDS011;3807;49.030;8.714;2022-12-17T10:16:23;36.90;;;17.60;;
7531;SDS011;3807;49.030;8.714;2022-12-17T10:22:12;41.00;;;16.60;;
7531;SDS011;3807;49.030;8.714;2022-12-17T10:25:01;25.60;;;13.17;;
7531;SDS011;3807;49.030;8.714;2022-12-17T10:27:48;29.13;;;13.97;;
7531;SDS011;3807;49.030;8.714;2022-12-17T10:30:46;33.87;;;17.47;;
7531;SDS011;3807;49.030;8.714;2022-12-17T10:33:35;26.63;;;12.67;;
7531;SDS011;3807;49.030;8.714;2022-12-17T10:36:22;25.90;;;12.00;;
7531;SDS011;3807;49.030;8.714;2022-12-17T10:39:11;36.10;;;15.90;;
7531;SDS011;3807;49.030;8.714;2022-12-17T10:41:59;31.80;;;13.83;;
7531;SDS011;3807;49.030;8.714;2022-12-17T10:44:43;33.90;;;11.70;;
7531;SDS011;3807;49.030;8.714;2022-12-17T10:47:27;26.97;;;12.47;;
7531;SDS011;3807;49.030;8.714;2022-12-17T10:50:13;17.37;;;8.47;;
7531;SDS011;3807;49.030;8.714;2022-12-17T10:52:59;26.80;;;12.83;;
7531;SDS011;3807;49.030;8.714;2022-12-17T10:55:49;22.37;;;11.53;;
7531;SDS011;3807;49.030;8.714;2022-12-17T10:58:41;26.57;;;11.73;;
7531;SDS011;3807;49.030;8.714;2022-12-17T11:01:27;15.50;;;7.50;;
7531;SDS011;3807;49.030;8.714;2022-12-17T11:04:21;35.23;;;16.93;;
7531;SDS011;3807;49.030;8.714;2022-12-17T11:07:22;30.47;;;14.77;;
7531;SDS011;3807;49.030;8.714;2022-12-17T11:10:14;36.63;;;15.77;;
7531;SDS011;3807;49.030;8.714;2022-12-17T11:13:02;40.37;;;17.43;;
7531;SDS011;3807;49.030;8.714;2022-12-17T11:15:51;19.50;;;8.93;;
7531;SDS011;3807;49.030;8.714;2022-12-17T11:21:25;37.60;;;16.70;;
7531;SDS011;3807;49.030;8.714;2022-12-17T11:24:20;45.93;;;19.40;;
7531;SDS011;3807;49.030;8.714;2022-12-17T11:27:09;39.80;;;18.20;;
7531;SDS011;3807;49.030;8.714;2022-12-17T11:30:00;32.00;;;14.67;;
7531;SDS011;3807;49.030;8.714;2022-12-17T11:32:57;35.00;;;16.20;;
7531;SDS011;3807;49.030;8.714;2022-12-17T11:35:59;33.87;;;15.33;;
7531;SDS011;3807;49.030;8.714;2022-12-17T11:49:00;37.70;;;16.20;;
7531;SDS011;3807;49.030;8.714;2022-12-17T11:57:51;29.30;;;14.27;;
7531;SDS011;3807;49.030;8.714;2022-12-17T12:01:01;19.20;;;10.37;;
7531;SDS011;3807;49.030;8.714;2022-12-17T12:07:18;51.97;;;26.92;;
7531;SDS011;3807;49.030;8.714;2022-12-17T12:13:43;34.13;;;16.67;;
7531;SDS011;3807;49.030;8.714;2022-12-17T12:16:34;39.43;;;17.77;;
7531;SDS011;3807;49.030;8.714;2022-12-17T12:19:24;41.47;;;17.50;;
7531;SDS011;3807;49.030;8.714;2022-12-17T12:22:15;39.00;;;16.63;;
7531;SDS011;3807;49.030;8.714;2022-12-17T12:34:18;33.87;;;16.43;;
7531;SDS011;3807;49.030;8.714;2022-12-17T12:37:04;40.33;;;17.77;;
7531;SDS011;3807;49.030;8.714;2022-12-17T12:42:55;38.47;;;18.70;;
7531;SDS011;3807;49.030;8.714;2022-12-17T12:46:03;41.23;;;18.50;;
7531;SDS011;3807;49.030;8.714;2022-12-17T12:51:51;45.17;;;19.03;;
7531;SDS011;3807;49.030;8.714;2022-12-17T12:57:32;35.27;;;15.90;;
7531;SDS011;3807;49.030;8.714;2022-12-17T13:03:15;37.40;;;17.97;;
7531;SDS011;3807;49.030;8.714;2022-12-17T13:06:02;48.00;;;22.80;;
7531;SDS011;3807;49.030;8.714;2022-12-17T13:08:28;46.73;;;19.57;;
7531;SDS011;3807;49.030;8.714;2022-12-17T13:10:53;41.87;;;16.03;;
7531;SDS011;3807;49.030;8.714;2022-12-17T13:16:17;23.97;;;11.47;;
7531;SDS011;3807;49.030;8.714;2022-12-17T13:19:00;42.03;;;20.40;;
7531;SDS011;3807;49.030;8.714;2022-12-17T13:21:27;39.83;;;20.40;;
7531;SDS011;3807;49.030;8.714;2022-12-17T13:23:53;27.80;;;13.83;;
7531;SDS011;3807;49.030;8.714;2022-12-17T13:37:14;46.43;;;22.97;;
7531;SDS011;3807;49.030;8.714;2022-12-17T13:42:18;30.63;;;14.97;;
7531;SDS011;3807;49.030;8.714;2022-12-17T13:44:52;42.80;;;18.13;;
7531;SDS011;3807;49.030;8.714;2022-12-17T13:47:19;43.17;;;20.80;;
7531;SDS011;3807;49.030;8.714;2022-12-17T13:49:52;44.23;;;20.47;;
7531;SDS011;3807;49.030;8.714;2022-12-17T13:52:20;42.47;;;17.03;;
7531;SDS011;3807;49.030;8.714;2022-12-17T13:54:49;34.53;;;17.20;;
7531;SDS011;3807;49.030;8.714;2022-12-17T13:57:15;65.40;;;28.67;;
7531;SDS011;3807;49.030;8.714;2022-12-17T13:59:50;46.10;;;21.53;;
7531;SDS011;3807;49.030;8.714;2022-12-17T14:04:55;37.83;;;19.77;;
7531;SDS011;3807;49.030;8.714;2022-12-17T14:07:22;40.60;;;20.27;;
7531;SDS011;3807;49.030;8.714;2022-12-17T14:09:50;41.93;;;21.07;;
7531;SDS011;3807;49.030;8.714;2022-12-17T14:12:17;43.97;;;20.53;;
7531;SDS011;3807;49.030;8.714;2022-12-17T14:14:53;49.93;;;22.87;;
7531;SDS011;3807;49.030;8.714;2022-12-17T14:17:25;43.27;;;21.07;;
7531;SDS011;3807;49.030;8.714;2022-12-17T14:19:58;35.17;;;15.80;;
7531;SDS011;3807;49.030;8.714;2022-12-17T14:22:32;41.53;;;19.37;;
7531;SDS011;3807;49.030;8.714;2022-12-17T14:25:01;43.03;;;20.33;;
7531;SDS011;3807;49.030;8.714;2022-12-17T14:27:32;42.27;;;20.90;;
7531;SDS011;3807;49.030;8.714;2022-12-17T14:30:00;45.27;;;21.40;;
7531;SDS011;3807;49.030;8.714;2022-12-17T14:32:31;44.50;;;22.50;;
7531;SDS011;3807;49.030;8.714;2022-12-17T14:34:58;40.77;;;18.80;;
7531;SDS011;3807;49.030;8.714;2022-12-17T14:37:24;41.53;;;19.83;;
7531;SDS011;3807;49.030;8.714;2022-12-17T14:39:51;33.77;;;15.90;;
7531;SDS011;3807;49.030;8.714;2022-12-17T14:42:21;40.80;;;19.37;;
7531;SDS011;3807;49.030;8.714;2022-12-17T14:44:55;34.07;;;17.43;;
7531;SDS011;3807;49.030;8.714;2022-12-17T14:50:22;31.00;;;15.60;;
7531;SDS011;3807;49.030;8.714;2022-12-17T14:52:50;36.40;;;18.37;;
7531;SDS011;3807;49.030;8.714;2022-12-17T14:57:52;39.10;;;19.87;;
7531;SDS011;3807;49.030;8.714;2022-12-17T15:00:31;38.60;;;17.43;;
7531;SDS011;3807;49.030;8.714;2022-12-17T15:02:57;38.03;;;19.27;;
7531;SDS011;3807;49.030;8.714;2022-12-17T15:05:22;38.93;;;20.43;;
7531;SDS011;3807;49.030;8.714;2022-12-17T15:07:47;42.17;;;19.67;;
7531;SDS011;3807;49.030;8.714;2022-12-17T15:10:15;36.60;;;16.90;;
7531;SDS011;3807;49.030;8.714;2022-12-17T15:12:43;41.70;;;20.40;;
7531;SDS011;3807;49.030;8.714;2022-12-17T15:15:14;33.73;;;16.53;;
7531;SDS011;3807;49.030;8.714;2022-12-17T15:17:40;38.77;;;16.97;;
7531;SDS011;3807;49.030;8.714;2022-12-17T15:20:06;39.73;;;19.93;;
7531;SDS011;3807;49.030;8.714;2022-12-17T15:22:36;39.77;;;18.73;;
7531;SDS011;3807;49.030;8.714;2022-12-17T15:25:02;41.87;;;20.57;;
7531;SDS011;3807;49.030;8.714;2022-12-17T15:27:28;51.27;;;22.63;;
7531;SDS011;3807;49.030;8.714;2022-12-17T15:29:53;44.40;;;20.30;;
7531;SDS011;3807;49.030;8.714;2022-12-17T15:32:20;44.77;;;22.00;;
7531;SDS011;3807;49.030;8.714;2022-12-17T15:34:46;41.27;;;20.83;;
7531;SDS011;3807;49.030;8.714;2022-12-17T15:37:12;47.27;;;20.57;;
7531;SDS011;3807;49.030;8.714;2022-12-17T15:39:39;48.77;;;22.50;;
7531;SDS011;3807;49.030;8.714;2022-12-17T15:42:04;47.77;;;21.53;;
7531;SDS011;3807;49.030;8.714;2022-12-17T15:44:48;57.30;;;23.40;;
7531;SDS011;3807;49.030;8.714;2022-12-17T15:47:13;45.87;;;19.67;;
7531;SDS011;3807;49.030;8.714;2022-12-17T15:49:39;47.93;;;21.90;;
7531;SDS011;3807;49.030;8.714;2022-12-17T15:52:05;41.40;;;19.70;;
7531;SDS011;3807;49.030;8.714;2022-12-17T15:54:30;39.17;;;19.03;;
7531;SDS011;3807;49.030;8.714;2022-12-17T15:56:55;42.07;;;19.87;;
7531;SDS011;3807;49.030;8.714;2022-12-17T15:59:22;37.50;;;17.83;;
7531;SDS011;3807;49.030;8.714;2022-12-17T16:01:47;39.93;;;19.47;;
7531;SDS011;3807;49.030;8.714;2022-12-17T16:04:13;44.73;;;20.53;;
7531;SDS011;3807;49.030;8.714;2022-12-17T16:06:38;38.30;;;19.20;;
7531;SDS011;3807;49.030;8.714;2022-12-17T16:09:03;41.17;;;20.63;;
7531;SDS011;3807;49.030;8.714;2022-12-17T16:11:29;51.80;;;22.97;;
7531;SDS011;3807;49.030;8.714;2022-12-17T16:13:54;44.20;;;21.23;;
7531;SDS011;3807;49.030;8.714;2022-12-17T16:16:20;34.73;;;17.70;;
7531;SDS011;3807;49.030;8.714;2022-12-17T16:18:46;37.57;;;18.17;;
7531;SDS011;3807;49.030;8.714;2022-12-17T16:21:12;37.03;;;18.57;;
7531;SDS011;3807;49.030;8.714;2022-12-17T16:23:37;38.37;;;19.43;;
7531;SDS011;3807;49.030;8.714;2022-12-17T16:26:04;39.80;;;19.83;;
7531;SDS011;3807;49.030;8.714;2022-12-17T16:28:31;42.97;;;19.83;;
7531;SDS011;3807;49.030;8.714;2022-12-17T16:33:23;37.53;;;19.03;;
7531;SDS011;3807;49.030;8.714;2022-12-17T16:35:49;43.40;;;18.83;;
7531;SDS011;3807;49.030;8.714;2022-12-17T16:38:15;38.83;;;18.70;;
7531;SDS011;3807;49.030;8.714;2022-12-17T16:40:41;40.07;;;18.60;;
7531;SDS011;3807;49.030;8.714;2022-12-17T16:43:06;43.70;;;21.03;;
7531;SDS011;3807;49.030;8.714;2022-12-17T16:45:32;33.97;;;19.13;;
7531;SDS011;3807;49.030;8.714;2022-12-17T16:47:57;42.27;;;20.53;;
7531;SDS011;3807;49.030;8.714;2022-12-17T16:50:22;38.70;;;18.70;;
7531;SDS011;3807;49.030;8.714;2022-12-17T16:52:51;44.57;;;19.47;;
7531;SDS011;3807;49.030;8.714;2022-12-17T16:55:16;32.97;;;16.63;;
7531;SDS011;3807;49.030;8.714;2022-12-17T16:57:41;33.07;;;16.97;;
7531;SDS011;3807;49.030;8.714;2022-12-17T17:00:07;39.70;;;19.87;;
7531;SDS011;3807;49.030;8.714;2022-12-17T17:02:33;38.70;;;17.93;;
7531;SDS011;3807;49.030;8.714;2022-12-17T17:04:58;43.93;;;23.37;;
7531;SDS011;3807;49.030;8.714;2022-12-17T17:07:23;51.50;;;23.20;;
7531;SDS011;3807;49.030;8.714;2022-12-17T17:09:49;45.87;;;24.40;;
7531;SDS011;3807;49.030;8.714;2022-12-17T17:12:14;41.17;;;20.00;;
7531;SDS011;3807;49.030;8.714;2022-12-17T17:14:39;41.83;;;20.10;;
7531;SDS011;3807;49.030;8.714;2022-12-17T17:17:07;40.97;;;19.17;;
7531;SDS011;3807;49.030;8.714;2022-12-17T17:19:33;36.40;;;17.30;;
7531;SDS011;3807;49.030;8.714;2022-12-17T17:21:58;37.43;;;19.20;;
7531;SDS011;3807;49.030;8.714;2022-12-17T17:24:23;42.10;;;20.50;;
7531;SDS011;3807;49.030;8.714;2022-12-17T17:26:50;42.23;;;21.50;;
7531;SDS011;3807;49.030;8.714;2022-12-17T17:29:16;43.17;;;20.30;;
7531;SDS011;3807;49.030;8.714;2022-12-17T17:31:42;37.37;;;19.07;;
7531;SDS011;3807;49.030;8.714;2022-12-17T17:34:08;33.37;;;17.20;;
7531;SDS011;3807;49.030;8.714;2022-12-17T17:36:34;35.47;;;19.67;;
7531;SDS011;3807;49.030;8.714;2022-12-17T17:39:00;40.20;;;21.00;;
7531;SDS011;3807;49.030;8.714;2022-12-17T17:41:27;46.33;;;21.50;;
7531;SDS011;3807;49.030;8.714;2022-12-17T17:43:54;33.13;;;17.00;;
7531;SDS011;3807;49.030;8.714;2022-12-17T17:46:24;47.80;;;23.57;;